Time;durP1;ratioP1;P1;durP2;ratioP2;P2;SDS_P1;SDS_P2;PMS_P1;PMS_P2;Temp;Humidity;BMP_temperature;BMP_pressure;BME280_temperature;BME280_humidity;BME280_pressure;Samples;Min_cycle;Max_cycle;Signal;HPM_P1;HPM_P2
2021/10/17 06:05:30;;;;;;;9.10;2.50;;;;;;;;;;10483835;28;20637;-84
2021/10/17 06:10:31;;;;;;;10.48;2.50;;;;;;;;;;10452604;28;20061;-84
2021/10/17 06:15:31;;;;;;;5.00;2.35;;;;;;;;;;10467690;28;20036;-84
2021/10/17 06:20:31;;;;;;;5.07;2.60;;;;;;;;;;10445020;28;20032;-84
2021/10/17 06:25:32;;;;;;;4.33;2.43;;;;;;;;;;10462490;28;20108;-85
2021/10/17 06:30:32;;;;;;;7.93;2.50;;;;;;;;;;10448836;28;20036;-84
2021/10/17 06:35:33;;;;;;;3.03;2.10;;;;;;;;;;10452606;28;20104;-84
2021/10/17 06:40:33;;;;;;;11.60;2.23;;;;;;;;;;10436030;28;20057;-85
2021/10/17 06:45:33;;;;;;;3.45;2.00;;;;;;;;;;10448277;28;20519;-85
2021/10/17 06:50:34;;;;;;;4.80;2.43;;;;;;;;;;10440653;28;20045;-82
2021/10/17 06:55:34;;;;;;;5.07;2.50;;;;;;;;;;10438048;28;20068;-80
2021/10/17 07:00:35;;;;;;;7.57;2.10;;;;;;;;;;10433707;28;20041;-84
2021/10/17 07:05:35;;;;;;;5.07;2.17;;;;;;;;;;10446239;28;20032;-83
2021/10/17 07:10:35;;;;;;;9.17;2.43;;;;;;;;;;10444672;28;20033;-84
2021/10/17 07:15:36;;;;;;;3.30;1.93;;;;;;;;;;10429868;28;20541;-83
2021/10/17 07:20:36;;;;;;;4.53;2.37;;;;;;;;;;10419840;28;20029;-83
2021/10/17 07:25:36;;;;;;;8.73;2.50;;;;;;;;;;10420639;28;20103;-83
2021/10/17 07:30:37;;;;;;;3.97;2.55;;;;;;;;;;10420668;28;20782;-83
2021/10/17 07:35:37;;;;;;;6.30;2.38;;;;;;;;;;10406084;28;20021;-83
2021/10/17 07:40:38;;;;;;;4.85;2.47;;;;;;;;;;10419524;28;20040;-83
2021/10/17 07:45:38;;;;;;;4.17;2.43;;;;;;;;;;10400940;23;20132;-83
2021/10/17 07:50:39;;;;;;;3.00;2.10;;;;;;;;;;10378591;28;20462;-83
2021/10/17 07:55:39;;;;;;;4.88;2.53;;;;;;;;;;10378293;28;20054;-83
2021/10/17 08:00:39;;;;;;;4.57;2.60;;;;;;;;;;10378505;28;20036;-83
2021/10/17 08:05:40;;;;;;;3.57;1.97;;;;;;;;;;10377929;28;20464;-83
2021/10/17 08:10:40;;;;;;;6.03;2.50;;;;;;;;;;10377735;28;20482;-83
2021/10/17 08:15:40;;;;;;;5.07;2.50;;;;;;;;;;10377769;28;20448;-83
2021/10/17 08:20:41;;;;;;;4.03;2.33;;;;;;;;;;10377419;28;20033;-83
2021/10/17 08:25:42;;;;;;;2.70;1.83;;;;;;;;;;10375516;28;20520;-83
2021/10/17 08:30:46;;;;;;;2.90;1.90;;;;;;;;;;10377061;28;20084;-83
2021/10/17 08:35:47;;;;;;;4.00;2.38;;;;;;;;;;10377055;28;20116;-83
2021/10/17 08:40:49;;;;;;;5.00;2.50;;;;;;;;;;10376022;28;20117;-84
2021/10/17 08:45:50;;;;;;;2.67;2.05;;;;;;;;;;10375680;28;20049;-83
2021/10/17 08:50:51;;;;;;;3.65;2.05;;;;;;;;;;10376498;28;20037;-83
2021/10/17 08:55:51;;;;;;;2.35;1.70;;;;;;;;;;10376302;28;20032;-83
2021/10/17 09:00:52;;;;;;;2.57;1.70;;;;;;;;;;10375816;28;20065;-83
2021/10/17 09:05:53;;;;;;;3.22;2.33;;;;;;;;;;10375692;28;20475;-83
2021/10/17 09:10:53;;;;;;;2.90;1.88;;;;;;;;;;10375779;28;20034;-83
2021/10/17 09:15:55;;;;;;;5.65;2.10;;;;;;;;;;10375240;28;20095;-83
2021/10/17 09:20:58;;;;;;;2.58;2.00;;;;;;;;;;10375082;28;20040;-83
2021/10/17 09:26:02;;;;;;;2.05;1.85;;;;;;;;;;10375011;28;20033;-83
2021/10/17 09:31:10;;;;;;;4.20;2.10;;;;;;;;;;10373882;28;20462;-83
2021/10/17 09:36:19;;;;;;;2.97;2.10;;;;;;;;;;10374432;28;20041;-83
2021/10/17 09:41:32;;;;;;;2.80;2.30;;;;;;;;;;10374674;28;20034;-84
2021/10/17 09:46:33;;;;;;;6.00;1.90;;;;;;;;;;10374820;28;20053;-83
2021/10/17 09:51:33;;;;;;;3.20;1.85;;;;;;;;;;10374212;28;20029;-83
2021/10/17 09:56:37;;;;;;;2.13;1.70;;;;;;;;;;10373795;28;20119;-83
2021/10/17 10:01:40;;;;;;;2.25;1.80;;;;;;;;;;10374037;28;20034;-84
2021/10/17 10:06:40;;;;;;;1.90;1.73;;;;;;;;;;10374301;28;20038;-83
2021/10/17 10:11:41;;;;;;;2.65;2.05;;;;;;;;;;10373600;28;20044;-83
2021/10/17 10:16:42;;;;;;;2.20;2.00;;;;;;;;;;10373788;28;20022;-84
2021/10/17 10:21:42;;;;;;;2.00;1.80;;;;;;;;;;10371972;28;20037;-84
2021/10/17 10:26:43;;;;;;;1.90;1.70;;;;;;;;;;10373802;28;20041;-83
2021/10/17 10:31:52;;;;;;;2.20;1.80;;;;;;;;;;10372026;28;20611;-84
2021/10/17 10:36:54;;;;;;;2.45;1.77;;;;;;;;;;10373389;28;20362;-84
2021/10/17 10:42:02;;;;;;;2.35;1.92;;;;;;;;;;10373398;28;20041;-83
2021/10/17 10:47:26;;;;;;;2.03;1.70;;;;;;;;;;10373916;28;20066;-83
2021/10/17 10:52:26;;;;;;;1.88;1.65;;;;;;;;;;10380305;28;20030;-83
2021/10/17 10:57:31;;;;;;;3.55;1.60;;;;;;;;;;10380656;28;20423;-83
2021/10/17 11:02:32;;;;;;;2.17;1.80;;;;;;;;;;10380082;28;20121;-83
2021/10/17 11:07:41;;;;;;;1.98;1.63;;;;;;;;;;10380262;28;20033;-83
2021/10/17 11:12:41;;;;;;;1.83;1.58;;;;;;;;;;10380088;28;20076;-83
2021/10/17 11:17:52;;;;;;;2.17;1.92;;;;;;;;;;10379435;28;20084;-84
2021/10/17 11:22:54;;;;;;;2.03;1.77;;;;;;;;;;10379769;28;20033;-83
2021/10/17 11:27:55;;;;;;;3.75;1.83;;;;;;;;;;10378860;28;20025;-83
2021/10/17 11:32:58;;;;;;;1.55;1.45;;;;;;;;;;10377962;28;20030;-83
2021/10/17 11:38:00;;;;;;;2.60;1.80;;;;;;;;;;10378121;28;20031;-83
2021/10/17 11:43:05;;;;;;;3.20;1.80;;;;;;;;;;10378679;28;20103;-84
2021/10/17 11:48:11;;;;;;;1.92;1.77;;;;;;;;;;10378266;28;20084;-83
2021/10/17 11:53:14;;;;;;;1.70;1.45;;;;;;;;;;10378256;28;20029;-83
2021/10/17 11:58:18;;;;;;;1.70;1.55;;;;;;;;;;10378325;28;20380;-84
2021/10/17 12:03:20;;;;;;;2.80;1.80;;;;;;;;;;10377517;28;20117;-84
2021/10/17 12:08:29;;;;;;;2.60;1.80;;;;;;;;;;10377983;28;20364;-83
2021/10/17 12:13:38;;;;;;;2.45;1.75;;;;;;;;;;10378702;28;20421;-84
2021/10/17 12:19:10;;;;;;;1.85;1.60;;;;;;;;;;10377594;28;20395;-83
2021/10/17 12:24:11;;;;;;;2.15;1.50;;;;;;;;;;10376722;28;20057;-84
2021/10/17 12:29:13;;;;;;;2.00;1.70;;;;;;;;;;10377313;28;20033;-84
2021/10/17 12:34:15;;;;;;;1.92;1.67;;;;;;;;;;10376538;28;20037;-83
2021/10/17 12:39:19;;;;;;;1.77;1.40;;;;;;;;;;10375645;28;20026;-84
2021/10/17 12:44:19;;;;;;;2.05;1.70;;;;;;;;;;10376695;28;20054;-84
2021/10/17 12:49:19;;;;;;;1.73;1.60;;;;;;;;;;10375479;28;20380;-84
2021/10/17 12:54:23;;;;;;;2.90;1.63;;;;;;;;;;10376186;28;20062;-84
2021/10/17 12:59:32;;;;;;;1.73;1.45;;;;;;;;;;10376661;28;20379;-84
2021/10/17 13:04:56;;;;;;;1.60;1.50;;;;;;;;;;10375719;28;20124;-84
2021/10/17 13:10:06;;;;;;;2.13;1.83;;;;;;;;;;10362617;28;20030;-84
2021/10/17 13:15:27;;;;;;;1.80;1.70;;;;;;;;;;10374569;28;20040;-83
2021/10/17 13:20:29;;;;;;;2.10;1.80;;;;;;;;;;10374479;28;20033;-84
2021/10/17 13:25:31;;;;;;;1.88;1.55;;;;;;;;;;10375237;28;20030;-84
2021/10/17 13:30:32;;;;;;;1.70;1.60;;;;;;;;;;10375213;28;20034;-83
2021/10/17 13:35:33;;;;;;;1.80;1.70;;;;;;;;;;10374739;28;20060;-84
2021/10/17 13:40:34;;;;;;;1.88;1.40;;;;;;;;;;10374778;28;20034;-84
2021/10/17 13:45:36;;;;;;;3.20;1.65;;;;;;;;;;10374744;28;20050;-84
2021/10/17 13:50:36;;;;;;;1.50;1.40;;;;;;;;;;10373964;28;20368;-84
2021/10/17 13:55:36;;;;;;;1.60;1.50;;;;;;;;;;10375026;28;20030;-84
2021/10/17 14:00:37;;;;;;;2.00;1.80;;;;;;;;;;10374130;28;20436;-83
2021/10/17 14:05:37;;;;;;;1.70;1.50;;;;;;;;;;10374099;28;20034;-83
2021/10/17 14:10:38;;;;;;;2.30;1.60;;;;;;;;;;10374224;28;20768;-83
2021/10/17 14:15:38;;;;;;;1.57;1.47;;;;;;;;;;10373859;28;20494;-83
2021/10/17 14:20:39;;;;;;;1.98;1.80;;;;;;;;;;10373783;28;20030;-84
2021/10/17 14:25:39;;;;;;;2.42;1.60;;;;;;;;;;10379245;28;20476;-84
2021/10/17 14:30:40;;;;;;;2.43;1.63;;;;;;;;;;10381812;28;20460;-84
2021/10/17 14:35:40;;;;;;;1.65;1.55;;;;;;;;;;10381494;28;20455;-83
2021/10/17 14:40:47;;;;;;;1.90;1.53;;;;;;;;;;10380932;28;20464;-84
2021/10/17 14:45:47;;;;;;;1.70;1.60;;;;;;;;;;10380477;28;20467;-84
2021/10/17 14:50:49;;;;;;;1.40;1.30;;;;;;;;;;10380933;28;20041;-84
2021/10/17 14:55:49;;;;;;;1.60;1.48;;;;;;;;;;10378969;28;20026;-84
2021/10/17 15:00:50;;;;;;;1.70;1.60;;;;;;;;;;10380248;28;20528;-84
2021/10/17 15:05:50;;;;;;;1.60;1.50;;;;;;;;;;10380251;28;20451;-83
2021/10/17 15:10:51;;;;;;;1.77;1.67;;;;;;;;;;10379121;28;20034;-83
2021/10/17 15:15:51;;;;;;;1.67;1.58;;;;;;;;;;10380124;28;20466;-84
2021/10/17 15:20:52;;;;;;;1.55;1.40;;;;;;;;;;10379226;28;20026;-84
2021/10/17 15:25:52;;;;;;;1.80;1.70;;;;;;;;;;10379725;28;20045;-84
2021/10/17 15:30:53;;;;;;;1.40;1.30;;;;;;;;;;10378230;28;20034;-84
2021/10/17 15:35:53;;;;;;;1.67;1.53;;;;;;;;;;10378587;28;20447;-84
2021/10/17 15:40:53;;;;;;;1.75;1.65;;;;;;;;;;10379033;28;21072;-83
2021/10/17 15:45:54;;;;;;;1.70;1.60;;;;;;;;;;10379105;28;20053;-83
2021/10/17 15:50:54;;;;;;;1.27;1.17;;;;;;;;;;10379003;28;20492;-84
2021/10/17 15:55:54;;;;;;;1.77;1.60;;;;;;;;;;10376757;28;20530;-83
2021/10/17 16:00:57;;;;;;;1.50;1.40;;;;;;;;;;10378332;28;20038;-83
2021/10/17 16:05:58;;;;;;;2.22;1.60;;;;;;;;;;10377509;28;20080;-83
2021/10/17 16:10:59;;;;;;;1.70;1.60;;;;;;;;;;10377605;28;20052;-84
2021/10/17 16:15:59;;;;;;;1.50;1.40;;;;;;;;;;10377653;28;20949;-83
2021/10/17 16:21:00;;;;;;;1.70;1.60;;;;;;;;;;10377594;28;20041;-83
2021/10/17 16:26:00;;;;;;;2.35;1.40;;;;;;;;;;10377734;28;21453;-83
2021/10/17 16:31:06;;;;;;;1.43;1.33;;;;;;;;;;10377111;28;20525;-84
2021/10/17 16:36:11;;;;;;;1.38;1.27;;;;;;;;;;10376825;28;20065;-83
2021/10/17 16:41:12;;;;;;;1.60;1.50;;;;;;;;;;10376203;28;20486;-83
2021/10/17 16:46:13;;;;;;;1.40;1.30;;;;;;;;;;10375514;28;20125;-83
2021/10/17 16:51:13;;;;;;;1.63;1.40;;;;;;;;;;10375066;28;20042;-83
2021/10/17 16:56:14;;;;;;;1.60;1.50;;;;;;;;;;10376341;28;20030;-83
2021/10/17 17:01:16;;;;;;;2.37;1.30;;;;;;;;;;10375670;28;20456;-83
2021/10/17 17:06:16;;;;;;;1.58;1.48;;;;;;;;;;10375760;28;20042;-83
2021/10/17 17:11:17;;;;;;;1.48;1.30;;;;;;;;;;10375069;28;20050;-83
2021/10/17 17:16:18;;;;;;;1.80;1.50;;;;;;;;;;10375290;28;20199;-83
2021/10/17 17:21:18;;;;;;;1.57;1.47;;;;;;;;;;10374937;28;20073;-84
2021/10/17 17:26:19;;;;;;;1.40;1.30;;;;;;;;;;10375351;28;20451;-84
2021/10/17 17:31:19;;;;;;;1.60;1.50;;;;;;;;;;10374872;28;20985;-83
2021/10/17 17:36:20;;;;;;;1.52;1.30;;;;;;;;;;10374328;28;20148;-84
2021/10/17 17:41:23;;;;;;;1.63;1.53;;;;;;;;;;10372691;28;20022;-84
2021/10/17 17:46:23;;;;;;;1.33;1.23;;;;;;;;;;10363951;28;21016;-83
2021/10/17 17:51:24;;;;;;;1.50;1.40;;;;;;;;;;10372924;28;20088;-83
2021/10/17 17:56:24;;;;;;;2.38;1.60;;;;;;;;;;10373707;28;20113;-83
2021/10/17 18:01:24;;;;;;;5.55;1.30;;;;;;;;;;10372606;28;20038;-83
2021/10/17 18:06:25;;;;;;;1.17;1.17;;;;;;;;;;10369594;28;20124;-83
2021/10/17 18:11:25;;;;;;;2.07;1.70;;;;;;;;;;10373173;28;20145;-83
2021/10/17 18:16:27;;;;;;;2.87;1.67;;;;;;;;;;10366466;28;20969;-83
2021/10/17 18:21:27;;;;;;;6.30;1.48;;;;;;;;;;10371737;28;20518;-83
2021/10/17 18:26:27;;;;;;;2.33;1.50;;;;;;;;;;10371130;28;20084;-83
2021/10/17 18:31:28;;;;;;;6.33;2.20;;;;;;;;;;10368733;28;20116;-83
2021/10/17 18:36:29;;;;;;;1.93;1.67;;;;;;;;;;10373227;28;21011;-83
2021/10/17 18:41:30;;;;;;;3.75;1.52;;;;;;;;;;10373014;28;20029;-83
2021/10/17 18:46:30;;;;;;;3.30;1.83;;;;;;;;;;10373038;28;20132;-82
2021/10/17 18:51:30;;;;;;;1.90;1.73;;;;;;;;;;10373448;28;20563;-83
2021/10/17 18:56:31;;;;;;;1.83;1.50;;;;;;;;;;10372805;28;20456;-83
2021/10/17 19:01:31;;;;;;;2.40;1.80;;;;;;;;;;10372633;28;20507;-82
2021/10/17 19:06:32;;;;;;;4.13;1.80;;;;;;;;;;10373095;28;20038;-83
2021/10/17 19:11:32;;;;;;;2.13;1.70;;;;;;;;;;10377037;28;20872;-82
2021/10/17 19:16:32;;;;;;;3.07;2.13;;;;;;;;;;10379029;28;20456;-83
2021/10/17 19:21:33;;;;;;;7.90;2.33;;;;;;;;;;10379727;28;20460;-82
2021/10/17 19:26:33;;;;;;;2.00;1.77;;;;;;;;;;10379685;28;20109;-84
2021/10/17 19:31:34;;;;;;;7.10;2.20;;;;;;;;;;10378743;28;20458;-85
2021/10/17 19:36:34;;;;;;;10.13;2.55;;;;;;;;;;10379595;28;20437;-82
2021/10/17 19:41:34;;;;;;;14.67;2.67;;;;;;;;;;10361526;28;20029;-82
2021/10/17 19:46:35;;;;;;;26.83;3.33;;;;;;;;;;10417845;23;20567;-81
2021/10/17 19:51:35;;;;;;;14.30;4.80;;;;;;;;;;10406634;28;20112;-81
2021/10/17 19:56:36;;;;;;;11.18;5.18;;;;;;;;;;10405475;28;20096;-81
2021/10/17 20:01:36;;;;;;;12.48;5.82;;;;;;;;;;10417842;28;20111;-81
2021/10/17 20:06:38;;;;;;;15.48;4.18;;;;;;;;;;10411430;28;20036;-81
2021/10/17 20:11:38;;;;;;;11.82;4.78;;;;;;;;;;10418779;28;20384;-81
2021/10/17 20:16:39;;;;;;;7.67;5.03;;;;;;;;;;10417163;28;20036;-81
2021/10/17 20:21:39;;;;;;;12.75;5.03;;;;;;;;;;10417273;28;20566;-81
2021/10/17 20:26:40;;;;;;;7.40;4.73;;;;;;;;;;10418427;28;20060;-82
2021/10/17 20:31:40;;;;;;;9.90;4.55;;;;;;;;;;10408770;28;20076;-81
2021/10/17 20:36:42;;;;;;;43.78;4.68;;;;;;;;;;10416885;28;20100;-84
